createdAt,value
2018-03-22T00:00:08.238Z,0.00
2018-03-22T00:01:08.102Z,0.00
2018-03-22T00:02:07.967Z,0.00
2018-03-22T00:03:07.827Z,0.00
2018-03-22T00:04:07.694Z,0.00
2018-03-22T00:05:07.553Z,0.00
2018-03-22T00:06:07.416Z,0.00
2018-03-22T00:07:07.281Z,0.00
2018-03-22T00:08:07.148Z,0.00
2018-03-22T00:09:07.008Z,0.00
2018-03-22T00:10:06.870Z,0.00
2018-03-22T00:11:06.735Z,0.00
2018-03-22T00:12:06.597Z,0.00
2018-03-22T00:13:06.460Z,0.00
2018-03-22T00:14:06.324Z,0.00
2018-03-22T00:15:06.188Z,0.00
2018-03-22T00:16:06.051Z,0.00
2018-03-22T00:17:05.914Z,0.00
2018-03-22T00:18:05.778Z,0.00
2018-03-22T00:19:05.641Z,0.00
2018-03-22T00:20:05.505Z,0.00
2018-03-22T00:21:05.370Z,0.00
2018-03-22T00:22:05.230Z,0.00
2018-03-22T00:23:05.095Z,0.00
2018-03-22T00:24:04.960Z,0.00
2018-03-22T00:25:04.826Z,0.00
2018-03-22T00:26:04.683Z,0.00
2018-03-22T00:27:04.548Z,0.00
2018-03-22T00:28:04.412Z,0.00
2018-03-22T00:29:04.275Z,0.00
2018-03-22T00:30:04.140Z,0.00
2018-03-22T00:31:04.004Z,0.00
2018-03-22T00:32:03.863Z,0.00
2018-03-22T00:33:03.732Z,0.00
2018-03-22T00:34:03.590Z,0.00
2018-03-22T00:35:03.459Z,0.00
2018-03-22T00:36:03.316Z,0.00
2018-03-22T00:37:03.181Z,0.00
2018-03-22T00:38:03.045Z,0.00
2018-03-22T00:39:02.906Z,0.00
2018-03-22T00:40:02.774Z,0.00
2018-03-22T00:41:02.633Z,0.00
2018-03-22T00:42:02.500Z,0.00
2018-03-22T00:43:02.360Z,0.00
2018-03-22T00:44:02.220Z,0.00
2018-03-22T00:45:02.086Z,0.00
2018-03-22T00:46:01.947Z,0.00
2018-03-22T00:47:01.811Z,0.00
2018-03-22T00:48:01.674Z,0.00
2018-03-22T00:49:01.540Z,0.00
2018-03-22T00:50:01.399Z,0.00
2018-03-22T00:51:01.263Z,0.00
2018-03-22T00:52:01.124Z,0.00
2018-03-22T00:53:00.993Z,0.00
2018-03-22T00:54:00.852Z,0.00
2018-03-22T00:55:00.712Z,0.00
2018-03-22T00:56:00.578Z,0.00
2018-03-22T00:57:00.449Z,0.00
2018-03-22T00:58:00.306Z,0.00
2018-03-22T00:59:00.164Z,0.00
2018-03-22T01:00:00.027Z,0.00
2018-03-22T01:00:59.888Z,0.00
2018-03-22T01:01:59.754Z,0.00
2018-03-22T01:02:59.615Z,0.00
2018-03-22T01:03:59.478Z,0.00
2018-03-22T01:04:59.338Z,0.00
2018-03-22T01:05:59.202Z,0.00
2018-03-22T01:06:59.064Z,0.00
2018-03-22T01:07:58.932Z,0.00
2018-03-22T01:08:58.792Z,0.00
2018-03-22T01:09:58.651Z,0.00
2018-03-22T01:10:58.516Z,0.00
2018-03-22T01:11:58.378Z,0.00
2018-03-22T01:12:58.241Z,0.00
2018-03-22T01:13:58.103Z,0.00
2018-03-22T01:14:57.969Z,0.00
2018-03-22T01:15:57.827Z,0.00
2018-03-22T01:16:57.697Z,0.00
2018-03-22T01:17:57.571Z,0.00
2018-03-22T01:18:57.418Z,0.00
2018-03-22T01:19:57.277Z,0.00
2018-03-22T01:20:57.141Z,0.00
2018-03-22T01:21:57.004Z,0.00
2018-03-22T01:22:56.865Z,0.00
2018-03-22T01:23:56.732Z,0.00
2018-03-22T01:24:56.589Z,0.00
2018-03-22T01:25:56.455Z,0.00
2018-03-22T01:26:56.317Z,0.00
2018-03-22T01:27:56.177Z,0.00
2018-03-22T01:28:56.038Z,0.00
2018-03-22T01:29:55.900Z,0.00
2018-03-22T01:30:55.767Z,0.00
2018-03-22T01:31:55.624Z,0.00
2018-03-22T01:32:55.484Z,0.00
2018-03-22T01:33:55.350Z,0.00
2018-03-22T01:34:55.214Z,0.00
2018-03-22T01:35:55.076Z,0.00
2018-03-22T01:36:54.932Z,0.00
2018-03-22T01:37:54.796Z,0.00
2018-03-22T01:38:54.657Z,0.00
2018-03-22T01:39:54.525Z,0.00
2018-03-22T01:40:54.379Z,0.00
2018-03-22T01:41:54.242Z,0.00
2018-03-22T01:42:54.102Z,0.00
2018-03-22T01:43:53.965Z,0.00
2018-03-22T01:44:53.824Z,0.00
2018-03-22T01:45:53.685Z,0.00
2018-03-22T01:46:53.545Z,0.00
2018-03-22T01:47:53.407Z,0.00
2018-03-22T01:48:53.271Z,0.00
2018-03-22T01:49:53.129Z,0.00
2018-03-22T01:50:52.996Z,0.00
2018-03-22T01:51:52.854Z,0.00
2018-03-22T01:52:52.714Z,0.00
2018-03-22T01:53:52.574Z,0.00
2018-03-22T01:54:52.433Z,0.00
2018-03-22T01:55:52.297Z,0.00
2018-03-22T01:56:52.156Z,0.00
2018-03-22T01:57:52.019Z,0.00
2018-03-22T01:58:51.878Z,0.00
2018-03-22T01:59:51.742Z,0.00
2018-03-22T02:00:51.598Z,0.00
2018-03-22T02:01:51.470Z,0.00
2018-03-22T02:02:51.320Z,0.00
2018-03-22T02:03:51.183Z,0.00
2018-03-22T02:04:51.040Z,0.00
2018-03-22T02:05:50.901Z,0.00
2018-03-22T02:06:50.767Z,0.00
2018-03-22T02:07:50.623Z,0.00
2018-03-22T02:08:50.481Z,0.00
2018-03-22T02:09:50.344Z,0.00
2018-03-22T02:10:50.206Z,0.00
2018-03-22T02:11:50.066Z,0.00
2018-03-22T02:12:49.926Z,0.00
2018-03-22T02:13:49.785Z,0.00
2018-03-22T02:14:49.644Z,0.00
2018-03-22T02:15:49.506Z,0.00
2018-03-22T02:16:49.365Z,0.00
2018-03-22T02:17:49.229Z,0.00
2018-03-22T02:18:49.090Z,0.00
2018-03-22T02:19:48.946Z,0.00
2018-03-22T02:20:48.805Z,0.00
2018-03-22T02:21:48.677Z,0.00
2018-03-22T02:22:48.528Z,0.00
2018-03-22T02:23:48.390Z,0.00
2018-03-22T02:24:48.252Z,0.00
2018-03-22T02:25:48.108Z,0.00
2018-03-22T02:26:47.972Z,0.00
2018-03-22T02:27:47.827Z,0.00
2018-03-22T02:28:47.688Z,0.00
2018-03-22T02:29:47.553Z,0.00
2018-03-22T02:30:47.411Z,0.00
2018-03-22T02:31:47.269Z,0.00
2018-03-22T02:32:47.126Z,0.00
2018-03-22T02:33:46.988Z,0.00
2018-03-22T02:34:46.849Z,0.00
2018-03-22T02:35:46.708Z,0.00
2018-03-22T02:36:46.574Z,0.00
2018-03-22T02:37:46.429Z,0.00
2018-03-22T02:38:46.286Z,0.00
2018-03-22T02:39:46.148Z,0.00
2018-03-22T02:40:46.008Z,0.00
2018-03-22T02:41:45.866Z,0.00
2018-03-22T02:42:45.795Z,0.00
2018-03-22T02:43:45.588Z,0.00
2018-03-22T02:44:45.448Z,0.00
2018-03-22T02:45:45.306Z,0.00
2018-03-22T02:46:45.169Z,0.00
2018-03-22T02:47:45.030Z,0.00
2018-03-22T02:48:44.886Z,0.00
2018-03-22T02:49:44.743Z,0.00
2018-03-22T02:50:44.606Z,0.00
2018-03-22T02:51:44.466Z,0.00
2018-03-22T02:52:44.328Z,0.00
2018-03-22T02:53:44.187Z,0.00
2018-03-22T02:54:44.054Z,0.00
2018-03-22T02:55:43.905Z,0.00
2018-03-22T02:56:43.773Z,0.00
2018-03-22T02:57:43.626Z,0.00
2018-03-22T02:58:43.488Z,0.00
2018-03-22T02:59:43.344Z,0.00
2018-03-22T03:00:43.207Z,0.00
2018-03-22T03:01:43.066Z,0.00
2018-03-22T03:02:42.926Z,0.00
2018-03-22T03:03:42.787Z,0.00
2018-03-22T03:04:42.646Z,0.00
2018-03-22T03:05:42.510Z,0.00
2018-03-22T03:06:42.366Z,0.00
2018-03-22T03:07:42.223Z,0.00
2018-03-22T03:08:42.083Z,0.00
2018-03-22T03:09:41.942Z,0.00
2018-03-22T03:10:41.808Z,0.00
2018-03-22T03:11:41.670Z,0.00
2018-03-22T03:12:41.521Z,0.00
2018-03-22T03:13:41.380Z,0.00
2018-03-22T03:14:41.241Z,0.00
2018-03-22T03:15:41.101Z,0.00
2018-03-22T03:16:40.960Z,0.00
2018-03-22T03:17:40.822Z,0.00
2018-03-22T03:18:40.680Z,0.00
2018-03-22T03:19:40.542Z,0.00
2018-03-22T03:20:40.400Z,0.00
2018-03-22T03:21:40.264Z,0.00
2018-03-22T03:22:40.114Z,0.00
2018-03-22T03:23:39.976Z,0.00
2018-03-22T03:24:39.834Z,0.00
2018-03-22T03:25:39.696Z,0.00
2018-03-22T03:26:39.554Z,0.00
2018-03-22T03:27:39.415Z,0.00
2018-03-22T03:28:39.273Z,0.00
2018-03-22T03:29:39.135Z,0.00
2018-03-22T03:30:38.993Z,0.00
2018-03-22T03:31:38.855Z,0.00
2018-03-22T03:32:38.711Z,0.00
2018-03-22T03:33:38.572Z,0.00
2018-03-22T03:34:38.427Z,0.00
2018-03-22T03:35:38.290Z,0.00
2018-03-22T03:36:38.154Z,0.00
2018-03-22T03:37:38.009Z,0.00
2018-03-22T03:38:37.867Z,0.00
2018-03-22T03:39:37.729Z,0.00
2018-03-22T03:40:37.587Z,0.00
2018-03-22T03:41:37.445Z,0.00
2018-03-22T03:42:37.307Z,0.00
2018-03-22T03:43:37.168Z,0.00
2018-03-22T03:44:37.022Z,0.00
2018-03-22T03:45:36.885Z,0.00
2018-03-22T03:46:36.747Z,0.00
2018-03-22T03:47:36.600Z,0.00
2018-03-22T03:48:36.463Z,0.00
2018-03-22T03:49:36.320Z,0.00
2018-03-22T03:50:36.181Z,0.00
2018-03-22T03:51:36.041Z,0.00
2018-03-22T03:52:35.901Z,0.00
2018-03-22T03:53:35.763Z,0.00
2018-03-22T03:54:35.618Z,0.00
2018-03-22T03:55:35.479Z,0.00
2018-03-22T03:56:35.338Z,0.00
2018-03-22T03:57:35.199Z,0.00
2018-03-22T03:58:35.058Z,0.00
2018-03-22T03:59:34.920Z,0.00
2018-03-22T04:00:34.778Z,0.00
2018-03-22T04:01:34.636Z,0.00
2018-03-22T04:02:34.496Z,0.00
2018-03-22T04:03:34.356Z,0.00
2018-03-22T04:04:34.215Z,0.00
2018-03-22T04:05:34.075Z,0.00
2018-03-22T04:06:33.935Z,0.00
2018-03-22T04:07:33.794Z,0.00
2018-03-22T04:08:33.656Z,0.00
2018-03-22T04:09:33.517Z,0.00
2018-03-22T04:10:33.374Z,0.00
2018-03-22T04:11:33.234Z,0.00
2018-03-22T04:12:33.091Z,0.00
2018-03-22T04:13:32.950Z,0.00
2018-03-22T04:14:32.814Z,0.00
2018-03-22T04:15:32.670Z,0.00
2018-03-22T04:16:32.535Z,0.00
2018-03-22T04:17:32.394Z,0.00
2018-03-22T04:18:32.249Z,0.00
2018-03-22T04:19:32.110Z,0.00
2018-03-22T04:20:31.969Z,0.00
2018-03-22T04:21:31.827Z,0.00
2018-03-22T04:22:31.687Z,0.00
2018-03-22T04:23:31.549Z,0.00
2018-03-22T04:24:31.408Z,0.00
2018-03-22T04:25:31.264Z,0.00
2018-03-22T04:26:31.126Z,0.00
2018-03-22T04:27:30.985Z,0.00
2018-03-22T04:28:30.841Z,0.00
2018-03-22T04:29:30.702Z,0.00
2018-03-22T04:30:30.564Z,0.00
2018-03-22T04:31:30.420Z,0.00
2018-03-22T04:32:30.280Z,0.00
2018-03-22T04:33:30.140Z,0.00
2018-03-22T04:34:29.999Z,0.00
2018-03-22T04:35:29.861Z,0.00
2018-03-22T04:36:29.718Z,0.00
2018-03-22T04:37:29.576Z,0.00
2018-03-22T04:38:29.436Z,0.00
2018-03-22T04:39:29.303Z,0.00
2018-03-22T04:40:29.169Z,0.00
2018-03-22T04:41:29.016Z,0.00
2018-03-22T04:42:28.875Z,0.00
2018-03-22T04:43:28.734Z,0.00
2018-03-22T04:44:28.594Z,0.00
2018-03-22T04:45:28.457Z,0.00
2018-03-22T04:46:28.313Z,0.00
2018-03-22T04:47:28.175Z,0.00
2018-03-22T04:48:28.033Z,0.00
2018-03-22T04:49:27.908Z,0.00
2018-03-22T04:50:27.751Z,0.00
2018-03-22T04:51:27.610Z,0.00
2018-03-22T04:52:27.472Z,0.00
2018-03-22T04:53:27.332Z,0.00
2018-03-22T04:54:27.190Z,0.00
2018-03-22T04:55:27.054Z,4.00
2018-03-22T04:56:26.910Z,4.00
2018-03-22T04:57:26.770Z,0.00
2018-03-22T04:58:26.630Z,4.00
2018-03-22T04:59:26.493Z,0.00
2018-03-22T05:00:26.344Z,4.00
2018-03-22T05:01:26.206Z,4.00
2018-03-22T05:02:26.064Z,4.00
2018-03-22T05:03:25.924Z,8.00
2018-03-22T05:04:25.784Z,8.00
2018-03-22T05:05:25.652Z,8.00
2018-03-22T05:06:25.503Z,12.00
2018-03-22T05:07:25.361Z,12.00
2018-03-22T05:08:25.229Z,20.00
2018-03-22T05:09:25.078Z,24.00
2018-03-22T05:10:24.941Z,28.00
2018-03-22T05:11:24.799Z,28.00
2018-03-22T05:12:24.658Z,32.00
2018-03-22T05:13:24.514Z,36.00
2018-03-22T05:14:24.376Z,48.00
2018-03-22T05:15:24.234Z,52.00
2018-03-22T05:16:24.094Z,60.00
2018-03-22T05:17:23.955Z,68.00
2018-03-22T05:18:23.815Z,76.00
2018-03-22T05:19:23.670Z,88.00
2018-03-22T05:20:23.534Z,96.00
2018-03-22T05:21:23.393Z,108.00
2018-03-22T05:22:23.253Z,120.00
2018-03-22T05:23:23.115Z,128.00
2018-03-22T05:24:22.974Z,144.00
2018-03-22T05:25:22.829Z,156.00
2018-03-22T05:26:22.692Z,172.00
2018-03-22T05:27:22.550Z,184.00
2018-03-22T05:28:22.410Z,200.00
2018-03-22T05:29:22.270Z,212.00
2018-03-22T05:30:22.222Z,228.00
2018-03-22T05:31:22.506Z,248.00
2018-03-22T05:32:21.846Z,260.00
2018-03-22T05:33:21.707Z,276.00
2018-03-22T05:34:21.590Z,292.00
2018-03-22T05:35:22.037Z,308.00
2018-03-22T05:36:21.287Z,324.00
2018-03-22T05:37:21.147Z,344.00
2018-03-22T05:38:21.005Z,356.00
2018-03-22T05:39:20.868Z,372.00
2018-03-22T05:40:20.728Z,388.00
2018-03-22T05:41:20.587Z,404.00
2018-03-22T05:42:20.448Z,420.00
2018-03-22T05:43:20.302Z,432.00
2018-03-22T05:44:20.163Z,452.00
2018-03-22T05:45:20.022Z,468.00
2018-03-22T05:46:19.883Z,484.00
2018-03-22T05:47:19.745Z,500.00
2018-03-22T05:48:19.606Z,512.00
2018-03-22T05:49:19.466Z,528.00
2018-03-22T05:50:19.331Z,544.00
2018-03-22T05:51:19.183Z,556.00
2018-03-22T05:52:19.042Z,572.00
2018-03-22T05:53:18.902Z,584.00
2018-03-22T05:54:18.764Z,600.00
2018-03-22T05:55:18.623Z,616.00
2018-03-22T05:56:18.481Z,632.00
2018-03-22T05:57:18.340Z,644.00
2018-03-22T05:58:18.214Z,656.00
2018-03-22T05:59:18.062Z,672.00
2018-03-22T06:00:17.927Z,684.00
2018-03-22T06:01:17.790Z,700.00
2018-03-22T06:02:17.693Z,712.00
2018-03-22T06:03:17.501Z,732.00
2018-03-22T06:04:17.363Z,744.00
2018-03-22T06:05:17.233Z,760.00
2018-03-22T06:06:17.081Z,768.00
2018-03-22T06:07:17.075Z,780.00
2018-03-22T06:08:16.799Z,792.00
2018-03-22T06:09:16.662Z,800.00
2018-03-22T06:10:16.522Z,812.00
2018-03-22T06:11:16.397Z,824.00
2018-03-22T06:12:16.303Z,844.00
2018-03-22T06:13:16.101Z,864.00
2018-03-22T06:14:15.963Z,876.00
2018-03-22T06:15:16.200Z,880.00
2018-03-22T06:16:15.683Z,896.00
2018-03-22T06:17:15.543Z,904.00
2018-03-22T06:18:15.408Z,912.00
2018-03-22T06:19:15.280Z,924.00
2018-03-22T06:20:15.120Z,932.00
2018-03-22T06:21:15.122Z,948.00
2018-03-22T06:22:14.842Z,960.00
2018-03-22T06:23:14.703Z,968.00
2018-03-22T06:24:14.560Z,980.00
2018-03-22T06:25:14.424Z,996.00
2018-03-22T06:26:14.284Z,1012.00
2018-03-22T06:27:14.144Z,1032.00
2018-03-22T06:28:14.132Z,1064.00
2018-03-22T06:29:13.866Z,1100.00
2018-03-22T06:30:13.730Z,1156.00
2018-03-22T06:31:13.588Z,1252.00
2018-03-22T06:32:13.444Z,1436.00
2018-03-22T06:33:13.306Z,1744.00
2018-03-22T06:34:13.167Z,2148.00
2018-03-22T06:35:13.033Z,2160.00
2018-03-22T06:36:12.889Z,2444.00
2018-03-22T06:37:12.745Z,2580.00
2018-03-22T06:38:12.607Z,2648.00
2018-03-22T06:39:12.468Z,2736.00
2018-03-22T06:40:12.326Z,2916.00
2018-03-22T06:41:12.190Z,2968.00
2018-03-22T06:42:12.049Z,2984.00
2018-03-22T06:43:11.911Z,2896.00
2018-03-22T06:44:11.790Z,2884.00
2018-03-22T06:45:11.631Z,2824.00
2018-03-22T06:46:11.491Z,2948.00
2018-03-22T06:47:11.357Z,2968.00
2018-03-22T06:48:11.217Z,2876.00
2018-03-22T06:49:11.079Z,2792.00
2018-03-22T06:50:10.938Z,2900.00
2018-03-22T06:51:10.798Z,3152.00
2018-03-22T06:52:10.659Z,3160.00
2018-03-22T06:53:10.535Z,3256.00
2018-03-22T06:54:10.384Z,3320.00
2018-03-22T06:55:10.244Z,3204.00
2018-03-22T06:56:10.107Z,3324.00
2018-03-22T06:57:09.970Z,3316.00
2018-03-22T06:58:09.832Z,3336.00
2018-03-22T06:59:09.693Z,3320.00
2018-03-22T07:00:09.553Z,3308.00
2018-03-22T07:01:09.416Z,3312.00
2018-03-22T07:02:09.278Z,3312.00
2018-03-22T07:03:09.143Z,3324.00
2018-03-22T07:04:09.004Z,3332.00
2018-03-22T07:05:08.864Z,3352.00
2018-03-22T07:06:08.728Z,3368.00
2018-03-22T07:07:08.595Z,3396.00
2018-03-22T07:08:08.455Z,3424.00
2018-03-22T07:09:08.315Z,3444.00
2018-03-22T07:10:08.179Z,3440.00
2018-03-22T07:11:08.043Z,3396.00
2018-03-22T07:12:07.904Z,3304.00
2018-03-22T07:13:07.771Z,3232.00
2018-03-22T07:14:07.631Z,3236.00
2018-03-22T07:15:07.496Z,3280.00
2018-03-22T07:16:07.361Z,3284.00
2018-03-22T07:17:07.222Z,3276.00
2018-03-22T07:18:07.087Z,3240.00
2018-03-22T07:19:06.951Z,3232.00
2018-03-22T07:20:06.819Z,3296.00
2018-03-22T07:21:06.679Z,3308.00
2018-03-22T07:22:06.545Z,3388.00
2018-03-22T07:23:06.406Z,3396.00
2018-03-22T07:24:06.269Z,3452.00
2018-03-22T07:25:06.132Z,3428.00
2018-03-22T07:26:05.997Z,3480.00
2018-03-22T07:27:05.865Z,3536.00
2018-03-22T07:28:05.724Z,3672.00
2018-03-22T07:29:05.588Z,3700.00
2018-03-22T07:30:05.453Z,3736.00
2018-03-22T07:31:05.317Z,3676.00
2018-03-22T07:32:05.181Z,3748.00
2018-03-22T07:33:05.047Z,3764.00
2018-03-22T07:34:04.910Z,3756.00
2018-03-22T07:35:04.779Z,3688.00
2018-03-22T07:36:04.645Z,3584.00
2018-03-22T07:37:04.506Z,3612.00
2018-03-22T07:38:04.388Z,3672.00
2018-03-22T07:39:04.240Z,3788.00
2018-03-22T07:40:04.099Z,3832.00
2018-03-22T07:41:03.970Z,3728.00
2018-03-22T07:42:03.829Z,3872.00
2018-03-22T07:43:03.697Z,3816.00
2018-03-22T07:44:03.561Z,3872.00
2018-03-22T07:45:03.425Z,3892.00
2018-03-22T07:46:03.290Z,3900.00
2018-03-22T07:47:03.158Z,3920.00
2018-03-22T07:48:03.023Z,3948.00
2018-03-22T07:49:02.889Z,3968.00
2018-03-22T07:50:02.757Z,4016.00
2018-03-22T07:51:02.619Z,4032.00
2018-03-22T07:52:02.486Z,4024.00
2018-03-22T07:53:02.352Z,4056.00
2018-03-22T07:54:02.217Z,4088.00
2018-03-22T07:55:02.088Z,4104.00
2018-03-22T07:56:01.951Z,4128.00
2018-03-22T07:57:01.814Z,4152.00
2018-03-22T07:58:01.682Z,4168.00
2018-03-22T07:59:01.608Z,4172.00
2018-03-22T08:00:01.414Z,4124.00
2018-03-22T08:01:01.281Z,4108.00
2018-03-22T08:02:01.147Z,4140.00
2018-03-22T08:03:01.016Z,4236.00
2018-03-22T08:04:00.881Z,4260.00
2018-03-22T08:05:00.745Z,4268.00
2018-03-22T08:06:00.619Z,4292.00
2018-03-22T08:07:00.480Z,4256.00
2018-03-22T08:08:00.344Z,4248.00
2018-03-22T08:09:00.212Z,4248.00
2018-03-22T08:10:00.080Z,4264.00
2018-03-22T08:10:59.946Z,4288.00
2018-03-22T08:11:59.811Z,4296.00
2018-03-22T08:12:59.685Z,4308.00
2018-03-22T08:13:59.544Z,4332.00
2018-03-22T08:14:59.416Z,4352.00
2018-03-22T08:15:59.278Z,4368.00
2018-03-22T08:16:59.150Z,4392.00
2018-03-22T08:17:59.013Z,4408.00
2018-03-22T08:18:58.888Z,4424.00
2018-03-22T08:19:58.748Z,4440.00
2018-03-22T08:20:58.615Z,4452.00
2018-03-22T08:21:58.480Z,4468.00
2018-03-22T08:22:58.347Z,4480.00
2018-03-22T08:23:58.214Z,4496.00
2018-03-22T08:24:58.083Z,4516.00
2018-03-22T08:25:57.949Z,4528.00
2018-03-22T08:26:57.818Z,4548.00
2018-03-22T08:27:57.687Z,4560.00
2018-03-22T08:28:57.552Z,4576.00
2018-03-22T08:29:57.421Z,4592.00
2018-03-22T08:30:57.287Z,4600.00
2018-03-22T08:31:57.154Z,4604.00
2018-03-22T08:32:57.024Z,4532.00
2018-03-22T08:33:56.891Z,4600.00
2018-03-22T08:34:56.758Z,4404.00
2018-03-22T08:35:56.627Z,4264.00
2018-03-22T08:36:56.501Z,4692.00
2018-03-22T08:37:56.364Z,4704.00
2018-03-22T08:38:56.231Z,4716.00
2018-03-22T08:39:56.099Z,4732.00
2018-03-22T08:40:55.968Z,4748.00
2018-03-22T08:41:55.832Z,4768.00
2018-03-22T08:42:55.703Z,4780.00
2018-03-22T08:43:55.570Z,4804.00
2018-03-22T08:44:55.440Z,4816.00
2018-03-22T08:45:55.308Z,4832.00
2018-03-22T08:46:55.178Z,4848.00
2018-03-22T08:47:55.043Z,4856.00
2018-03-22T08:48:54.915Z,4872.00
2018-03-22T08:49:54.787Z,4884.00
2018-03-22T08:50:54.655Z,4896.00
2018-03-22T08:51:54.529Z,4912.00
2018-03-22T08:52:54.388Z,4932.00
2018-03-22T08:53:54.268Z,4944.00
2018-03-22T08:54:54.126Z,4964.00
2018-03-22T08:55:53.998Z,4980.00
2018-03-22T08:56:53.861Z,4992.00
2018-03-22T08:57:53.735Z,5008.00
2018-03-22T08:58:53.608Z,5028.00
2018-03-22T08:59:53.470Z,5036.00
2018-03-22T09:00:53.338Z,5048.00
2018-03-22T09:01:53.208Z,5052.00
2018-03-22T09:02:53.075Z,5068.00
2018-03-22T09:03:52.946Z,5080.00
2018-03-22T09:04:52.817Z,5092.00
2018-03-22T09:05:52.686Z,5108.00
2018-03-22T09:06:52.555Z,5096.00
2018-03-22T09:07:52.424Z,5104.00
2018-03-22T09:08:52.297Z,5144.00
2018-03-22T09:09:52.165Z,5152.00
2018-03-22T09:10:52.061Z,5076.00
2018-03-22T09:11:51.902Z,5156.00
2018-03-22T09:12:51.770Z,5144.00
2018-03-22T09:13:51.642Z,5216.00
2018-03-22T09:14:51.512Z,5228.00
2018-03-22T09:15:51.379Z,5248.00
2018-03-22T09:16:51.248Z,5264.00
2018-03-22T09:17:51.119Z,5276.00
2018-03-22T09:18:50.990Z,5292.00
2018-03-22T09:19:50.860Z,5300.00
2018-03-22T09:20:50.728Z,5296.00
2018-03-22T09:21:50.598Z,5312.00
2018-03-22T09:22:50.468Z,5320.00
2018-03-22T09:23:50.336Z,5324.00
2018-03-22T09:24:50.208Z,5336.00
2018-03-22T09:25:50.080Z,5344.00
2018-03-22T09:26:49.950Z,5356.00
2018-03-22T09:27:49.853Z,5372.00
2018-03-22T09:28:49.690Z,5384.00
2018-03-22T09:29:49.557Z,5396.00
2018-03-22T09:30:49.425Z,5408.00
2018-03-22T09:31:49.299Z,5420.00
2018-03-22T09:32:49.171Z,5428.00
2018-03-22T09:33:49.038Z,5440.00
2018-03-22T09:34:48.928Z,5448.00
2018-03-22T09:35:48.782Z,5456.00
2018-03-22T09:36:48.657Z,5464.00
2018-03-22T09:37:48.525Z,5480.00
2018-03-22T09:38:48.394Z,5508.00
2018-03-22T09:39:48.266Z,5532.00
2018-03-22T09:40:48.138Z,5548.00
2018-03-22T09:41:48.042Z,5564.00
2018-03-22T09:42:47.878Z,5576.00
2018-03-22T09:43:47.748Z,5580.00
2018-03-22T09:44:47.625Z,5452.00
2018-03-22T09:45:47.491Z,5412.00
2018-03-22T09:46:47.363Z,5476.00
2018-03-22T09:47:47.230Z,5492.00
2018-03-22T09:48:47.114Z,5516.00
2018-03-22T09:49:46.974Z,5560.00
2018-03-22T09:50:46.849Z,5584.00
2018-03-22T09:51:46.716Z,5592.00
2018-03-22T09:52:46.589Z,5604.00
2018-03-22T09:53:46.461Z,5604.00
2018-03-22T09:54:46.332Z,5600.00
2018-03-22T09:55:46.203Z,5604.00
2018-03-22T09:56:46.075Z,5608.00
2018-03-22T09:57:45.947Z,5608.00
2018-03-22T09:58:45.815Z,5560.00
2018-03-22T09:59:45.688Z,5572.00
2018-03-22T10:00:45.565Z,5644.00
2018-03-22T10:01:45.432Z,5724.00
2018-03-22T10:02:45.303Z,5772.00
2018-03-22T10:03:45.175Z,5732.00
2018-03-22T10:04:45.050Z,5736.00
2018-03-22T10:05:44.915Z,5732.00
2018-03-22T10:06:44.790Z,5736.00
2018-03-22T10:07:44.659Z,5708.00
2018-03-22T10:08:44.531Z,5684.00
2018-03-22T10:09:44.406Z,5660.00
2018-03-22T10:10:44.271Z,5636.00
2018-03-22T10:11:44.143Z,5628.00
2018-03-22T10:12:44.015Z,5576.00
2018-03-22T10:13:43.897Z,5540.00
2018-03-22T10:14:43.754Z,5432.00
2018-03-22T10:15:43.629Z,5296.00
2018-03-22T10:16:43.496Z,5424.00
2018-03-22T10:17:43.369Z,5380.00
2018-03-22T10:18:43.243Z,5452.00
2018-03-22T10:19:43.114Z,5440.00
2018-03-22T10:20:42.985Z,5580.00
2018-03-22T10:21:42.869Z,5540.00
2018-03-22T10:22:42.729Z,5588.00
2018-03-22T10:23:42.602Z,5444.00
2018-03-22T10:24:42.471Z,5436.00
2018-03-22T10:25:42.345Z,5572.00
2018-03-22T10:26:42.225Z,5584.00
2018-03-22T10:27:42.168Z,5548.00
2018-03-22T10:28:41.961Z,5572.00
2018-03-22T10:29:41.831Z,5608.00
2018-03-22T10:30:41.701Z,5612.00
2018-03-22T10:31:41.574Z,5636.00
2018-03-22T10:32:41.446Z,5660.00
2018-03-22T10:33:41.318Z,5644.00
2018-03-22T10:34:41.191Z,5624.00
2018-03-22T10:35:41.060Z,5628.00
2018-03-22T10:36:40.934Z,5628.00
2018-03-22T10:37:40.807Z,5616.00
2018-03-22T10:38:40.683Z,5608.00
2018-03-22T10:39:40.553Z,5608.00
2018-03-22T10:40:40.426Z,5632.00
2018-03-22T10:41:40.298Z,5632.00
2018-03-22T10:42:40.173Z,5588.00
2018-03-22T10:43:40.042Z,5588.00
2018-03-22T10:44:39.913Z,5608.00
2018-03-22T10:45:39.789Z,5632.00
2018-03-22T10:46:39.662Z,5608.00
2018-03-22T10:47:39.537Z,5580.00
2018-03-22T10:48:39.403Z,5620.00
2018-03-22T10:49:39.287Z,5712.00
2018-03-22T10:50:39.150Z,5868.00
2018-03-22T10:51:39.025Z,5944.00
2018-03-22T10:52:38.895Z,5844.00
2018-03-22T10:53:38.768Z,5772.00
2018-03-22T10:54:38.644Z,5780.00
2018-03-22T10:55:38.513Z,5852.00
2018-03-22T10:56:38.385Z,5968.00
2018-03-22T10:57:38.262Z,6116.00
2018-03-22T10:58:38.132Z,6172.00
2018-03-22T10:59:38.003Z,6412.00
2018-03-22T11:00:37.877Z,6356.00
2018-03-22T11:01:37.744Z,6472.00
2018-03-22T11:02:37.621Z,6888.00
2018-03-22T11:03:37.490Z,7344.00
2018-03-22T11:04:37.364Z,7664.00
2018-03-22T11:05:37.244Z,7840.00
2018-03-22T11:06:37.109Z,8028.00
2018-03-22T11:07:36.982Z,8024.00
2018-03-22T11:08:36.854Z,8004.00
2018-03-22T11:09:36.729Z,8184.00
2018-03-22T11:10:36.600Z,8272.00
2018-03-22T11:11:36.470Z,8560.00
2018-03-22T11:12:36.343Z,9244.00
2018-03-22T11:13:36.217Z,10244.00
2018-03-22T11:14:36.091Z,10528.00
2018-03-22T11:15:35.959Z,10364.00
2018-03-22T11:16:35.839Z,10364.00
2018-03-22T11:17:35.708Z,11120.00
2018-03-22T11:18:35.581Z,11404.00
2018-03-22T11:19:35.453Z,11540.00
2018-03-22T11:20:35.326Z,12584.00
2018-03-22T11:21:35.202Z,11044.00
2018-03-22T11:22:35.074Z,14128.00
2018-03-22T11:23:34.951Z,14420.00
2018-03-22T11:24:34.822Z,14184.00
2018-03-22T11:25:34.694Z,14928.00
2018-03-22T11:26:34.567Z,14972.00
2018-03-22T11:27:34.441Z,15108.00
2018-03-22T11:28:34.316Z,14396.00
2018-03-22T11:29:34.190Z,13604.00
2018-03-22T11:30:34.064Z,13084.00
2018-03-22T11:31:33.937Z,13188.00
2018-03-22T11:32:33.814Z,13980.00
2018-03-22T11:33:33.692Z,13700.00
2018-03-22T11:34:33.561Z,12592.00
2018-03-22T11:35:33.435Z,13048.00
2018-03-22T11:36:33.310Z,11268.00
2018-03-22T11:37:33.185Z,11588.00
2018-03-22T11:38:33.060Z,11940.00
2018-03-22T11:39:32.933Z,11540.00
2018-03-22T11:40:32.809Z,11016.00
2018-03-22T11:41:32.685Z,10220.00
2018-03-22T11:42:32.559Z,10076.00
2018-03-22T11:43:32.433Z,9772.00
2018-03-22T11:44:32.310Z,9640.00
2018-03-22T11:45:32.187Z,9456.00
2018-03-22T11:46:32.059Z,9248.00
2018-03-22T11:47:31.940Z,9156.00
2018-03-22T11:48:31.812Z,8848.00
2018-03-22T11:49:31.685Z,8920.00
2018-03-22T11:50:31.561Z,9244.00
2018-03-22T11:51:31.434Z,9660.00
2018-03-22T11:52:31.310Z,9644.00
2018-03-22T11:53:31.183Z,9888.00
2018-03-22T11:54:31.064Z,10084.00
2018-03-22T11:55:30.935Z,10464.00
2018-03-22T11:56:30.855Z,11224.00
2018-03-22T11:57:30.691Z,11440.00
2018-03-22T11:58:30.564Z,11604.00
2018-03-22T11:59:30.437Z,12344.00
2018-03-22T12:00:30.312Z,12496.00
2018-03-22T12:01:30.192Z,13520.00
2018-03-22T12:02:30.064Z,14364.00
2018-03-22T12:03:29.936Z,12856.00
2018-03-22T12:04:29.812Z,14408.00
2018-03-22T12:05:29.690Z,14284.00
2018-03-22T12:06:29.570Z,14592.00
2018-03-22T12:07:29.440Z,16832.00
2018-03-22T12:08:29.321Z,16352.00
2018-03-22T12:09:29.189Z,15844.00
2018-03-22T12:10:29.064Z,16256.00
2018-03-22T12:11:28.941Z,16120.00
2018-03-22T12:12:28.832Z,16448.00
2018-03-22T12:13:28.697Z,16008.00
2018-03-22T12:14:28.569Z,16416.00
2018-03-22T12:15:28.445Z,16704.00
2018-03-22T12:16:28.319Z,16080.00
2018-03-22T12:17:28.193Z,16044.00
2018-03-22T12:18:28.071Z,16384.00
2018-03-22T12:19:28.003Z,16640.00
2018-03-22T12:20:27.822Z,16640.00
2018-03-22T12:21:27.696Z,16608.00
2018-03-22T12:22:27.574Z,16016.00
2018-03-22T12:23:27.459Z,15628.00
2018-03-22T12:24:27.341Z,16320.00
2018-03-22T12:25:27.199Z,15744.00
2018-03-22T12:26:27.075Z,15296.00
2018-03-22T12:27:26.951Z,15292.00
2018-03-22T12:28:26.829Z,14780.00
2018-03-22T12:29:26.700Z,14280.00
2018-03-22T12:30:26.576Z,15120.00
2018-03-22T12:31:26.448Z,16224.00
2018-03-22T12:32:26.350Z,15000.00